createdAt,value
2022-12-31T00:00:49.251Z,1.90
2022-12-31T00:03:17.543Z,2.00
2022-12-31T00:05:45.100Z,2.83
2022-12-31T00:08:12.636Z,2.28
2022-12-31T00:10:41.929Z,2.60
2022-12-31T00:13:13.401Z,2.30
2022-12-31T00:15:42.654Z,2.33
2022-12-31T00:18:10.875Z,2.63
2022-12-31T00:20:42.133Z,3.20
2022-12-31T00:23:10.735Z,2.75
2022-12-31T00:25:38.172Z,2.92
2022-12-31T00:28:05.662Z,2.42
2022-12-31T00:30:34.434Z,2.67
2022-12-31T00:33:01.954Z,2.35
2022-12-31T00:35:29.607Z,3.20
2022-12-31T00:37:57.233Z,2.78
2022-12-31T00:40:25.007Z,2.15
2022-12-31T00:42:52.461Z,3.53
2022-12-31T00:45:19.983Z,2.45
2022-12-31T00:47:47.475Z,3.05
2022-12-31T00:50:15.024Z,3.17
2022-12-31T00:52:42.454Z,2.33
2022-12-31T00:55:10.163Z,2.00
2022-12-31T00:57:37.649Z,2.47
2022-12-31T01:00:07.618Z,2.20
2022-12-31T01:02:35.516Z,2.47
2022-12-31T01:05:03.553Z,2.85
2022-12-31T01:07:31.120Z,2.38
2022-12-31T01:09:58.754Z,2.58
2022-12-31T01:12:26.369Z,2.47
2022-12-31T01:14:54.016Z,2.60
2022-12-31T01:17:21.521Z,2.63
2022-12-31T01:19:48.988Z,2.90
2022-12-31T01:22:16.616Z,2.17
2022-12-31T01:24:44.296Z,2.55
2022-12-31T01:27:11.914Z,2.53
2022-12-31T01:29:39.533Z,2.95
2022-12-31T01:32:06.964Z,2.45
2022-12-31T01:34:34.386Z,2.67
2022-12-31T01:37:01.890Z,2.63
2022-12-31T01:39:29.417Z,3.13
2022-12-31T01:41:58.070Z,3.00
2022-12-31T01:44:25.450Z,2.88
2022-12-31T01:47:00.431Z,2.65
2022-12-31T01:49:39.511Z,2.40
2022-12-31T01:52:12.407Z,2.42
2022-12-31T01:54:46.830Z,2.95
2022-12-31T01:57:14.960Z,3.30
2022-12-31T01:59:43.747Z,2.80
2022-12-31T02:02:12.863Z,3.08
2022-12-31T02:04:40.640Z,2.67
2022-12-31T02:07:09.913Z,1.92
2022-12-31T02:09:39.846Z,2.13
2022-12-31T02:12:09.544Z,2.15
2022-12-31T02:14:40.737Z,2.38
2022-12-31T02:17:34.028Z,2.72
2022-12-31T02:20:31.110Z,2.65
2022-12-31T02:23:10.842Z,1.75
2022-12-31T02:26:08.821Z,2.60
2022-12-31T02:29:11.775Z,2.20
2022-12-31T02:31:47.154Z,1.83
2022-12-31T02:34:25.575Z,2.72
2022-12-31T02:36:55.974Z,2.00
2022-12-31T02:39:23.670Z,1.80
2022-12-31T02:41:52.376Z,1.60
2022-12-31T02:44:29.293Z,2.55
2022-12-31T02:47:34.080Z,2.50
2022-12-31T02:50:27.889Z,1.95
2022-12-31T02:53:14.300Z,2.85
2022-12-31T02:55:54.850Z,1.80
2022-12-31T02:58:45.402Z,2.22
2022-12-31T03:01:36.164Z,1.85
2022-12-31T03:04:25.431Z,1.80
2022-12-31T03:06:53.904Z,1.63
2022-12-31T03:09:21.557Z,1.60
2022-12-31T03:12:07.951Z,2.08
2022-12-31T03:14:35.448Z,1.52
2022-12-31T03:17:02.915Z,1.30
2022-12-31T03:19:49.414Z,1.95
2022-12-31T03:22:29.285Z,1.20
2022-12-31T03:25:28.002Z,1.23
2022-12-31T03:27:57.146Z,1.20
2022-12-31T03:30:25.360Z,0.93
2022-12-31T03:32:53.975Z,0.90
2022-12-31T03:35:22.682Z,0.65
2022-12-31T03:37:51.355Z,0.80
2022-12-31T03:40:20.884Z,0.38
2022-12-31T03:42:48.375Z,0.50
2022-12-31T03:45:16.118Z,0.52
2022-12-31T03:47:43.875Z,0.35
2022-12-31T03:50:13.383Z,0.30
2022-12-31T03:52:41.196Z,0.20
2022-12-31T03:55:09.824Z,0.40
2022-12-31T03:57:38.637Z,0.40
2022-12-31T04:00:09.506Z,0.70
2022-12-31T04:02:37.387Z,0.22
2022-12-31T04:05:05.316Z,0.20
2022-12-31T04:07:32.785Z,0.30
2022-12-31T04:10:00.389Z,0.30
2022-12-31T04:12:27.817Z,0.40
2022-12-31T04:14:55.246Z,0.40
2022-12-31T04:17:22.700Z,0.32
2022-12-31T04:19:50.065Z,0.38
2022-12-31T04:22:17.787Z,0.32
2022-12-31T04:24:45.858Z,0.50
2022-12-31T04:27:14.164Z,0.28
2022-12-31T04:29:41.664Z,0.35
2022-12-31T04:32:10.319Z,0.60
2022-12-31T04:34:37.796Z,0.55
2022-12-31T04:37:05.328Z,0.65
2022-12-31T04:39:32.881Z,0.70
2022-12-31T04:42:00.263Z,0.70
2022-12-31T04:44:27.725Z,0.40
2022-12-31T04:46:55.287Z,0.73
2022-12-31T04:49:22.703Z,0.88
2022-12-31T04:51:50.219Z,1.02
2022-12-31T04:54:17.600Z,0.88
2022-12-31T04:56:45.038Z,1.60
2022-12-31T04:59:12.953Z,1.63
2022-12-31T05:01:40.680Z,1.45
2022-12-31T05:04:08.173Z,2.17
2022-12-31T05:06:35.655Z,3.40
2022-12-31T05:09:03.428Z,2.42
2022-12-31T05:11:30.954Z,2.15
2022-12-31T05:13:58.510Z,3.17
2022-12-31T05:16:26.320Z,3.20
2022-12-31T05:18:55.559Z,2.90
2022-12-31T05:21:23.030Z,3.65
2022-12-31T05:23:50.535Z,2.47
2022-12-31T05:26:18.013Z,1.92
2022-12-31T05:28:45.579Z,2.20
2022-12-31T05:31:13.061Z,2.38
2022-12-31T05:33:41.044Z,2.30
2022-12-31T05:36:08.560Z,2.58
2022-12-31T05:38:37.668Z,2.20
2022-12-31T05:41:07.626Z,2.45
2022-12-31T05:43:35.365Z,1.92
2022-12-31T05:46:04.479Z,1.67
2022-12-31T05:48:32.520Z,1.73
2022-12-31T05:51:00.426Z,2.08
2022-12-31T05:53:27.949Z,1.85
2022-12-31T05:55:55.541Z,1.60
2022-12-31T05:58:23.078Z,2.35
2022-12-31T06:00:52.203Z,2.55
2022-12-31T06:03:19.753Z,3.28
2022-12-31T06:05:47.317Z,2.83
2022-12-31T06:08:14.888Z,2.88
2022-12-31T06:10:42.618Z,2.83
2022-12-31T06:13:10.362Z,2.95
2022-12-31T06:15:39.814Z,2.78
2022-12-31T06:18:07.640Z,3.38
2022-12-31T06:20:38.895Z,2.97
2022-12-31T06:23:07.078Z,3.45
2022-12-31T06:25:38.025Z,2.50
2022-12-31T06:28:06.731Z,3.72
2022-12-31T06:30:34.591Z,3.65
2022-12-31T06:33:02.168Z,3.70
2022-12-31T06:35:29.807Z,4.00
2022-12-31T06:37:57.231Z,3.63
2022-12-31T06:40:24.976Z,4.25
2022-12-31T06:42:59.475Z,3.90
2022-12-31T06:45:28.490Z,3.70
2022-12-31T06:47:56.082Z,3.45
2022-12-31T06:50:24.127Z,3.53
2022-12-31T06:52:51.551Z,3.90
2022-12-31T06:55:19.349Z,3.30
2022-12-31T06:57:47.200Z,3.60
2022-12-31T07:00:15.417Z,4.03
2022-12-31T07:03:15.211Z,4.43
2022-12-31T07:06:03.869Z,3.30
2022-12-31T07:08:39.376Z,4.57
2022-12-31T07:11:20.504Z,2.92
2022-12-31T07:16:55.169Z,2.72
2022-12-31T07:19:28.683Z,2.65
2022-12-31T07:21:58.599Z,2.90
2022-12-31T07:24:26.572Z,3.35
2022-12-31T07:27:26.601Z,3.20
2022-12-31T07:30:09.731Z,2.55
2022-12-31T07:33:00.642Z,3.10
2022-12-31T07:38:37.987Z,2.75
2022-12-31T07:43:39.226Z,3.00
2022-12-31T07:46:35.797Z,3.50
2022-12-31T07:49:04.604Z,3.45
2022-12-31T07:51:32.423Z,4.18
2022-12-31T07:53:59.979Z,3.63
2022-12-31T07:56:27.455Z,5.55
2022-12-31T07:59:33.723Z,4.88
2022-12-31T08:02:01.277Z,3.90
2022-12-31T08:05:03.644Z,3.03
2022-12-31T08:07:43.536Z,2.83
2022-12-31T08:10:36.150Z,3.55
2022-12-31T08:13:09.228Z,3.45
2022-12-31T08:15:41.435Z,3.38
2022-12-31T08:18:09.352Z,3.00
2022-12-31T08:20:55.388Z,2.90
2022-12-31T08:24:07.321Z,3.22
2022-12-31T08:26:53.241Z,3.78
2022-12-31T08:29:41.166Z,3.80
2022-12-31T08:32:22.800Z,4.03
2022-12-31T08:35:17.043Z,4.63
2022-12-31T08:38:13.402Z,3.63
2022-12-31T08:40:59.455Z,4.45
2022-12-31T08:43:32.799Z,3.83
2022-12-31T08:46:00.855Z,4.70
2022-12-31T08:48:39.441Z,4.28
2022-12-31T08:51:13.082Z,4.10
2022-12-31T08:53:41.241Z,4.35
2022-12-31T08:56:22.283Z,4.20
2022-12-31T09:01:25.123Z,4.03
2022-12-31T09:03:55.643Z,4.20
2022-12-31T09:06:34.388Z,3.85
2022-12-31T09:09:13.206Z,3.60
2022-12-31T09:11:51.434Z,4.40
2022-12-31T09:14:21.610Z,4.35
2022-12-31T09:17:01.774Z,4.50
2022-12-31T09:19:29.361Z,4.82
2022-12-31T09:21:57.024Z,4.40
2022-12-31T09:24:24.947Z,4.25
2022-12-31T09:27:25.438Z,4.55
2022-12-31T09:30:14.456Z,5.00
2022-12-31T09:33:06.634Z,4.90
2022-12-31T09:35:58.038Z,4.75
2022-12-31T09:38:34.299Z,5.38
2022-12-31T09:41:13.893Z,4.43
2022-12-31T09:43:59.075Z,4.65
2022-12-31T09:46:50.266Z,4.13
2022-12-31T09:49:46.524Z,4.80
2022-12-31T09:52:30.399Z,3.78
2022-12-31T09:55:35.649Z,4.43
2022-12-31T09:58:12.485Z,5.38
2022-12-31T10:00:58.894Z,3.53
2022-12-31T10:03:52.270Z,3.90
2022-12-31T10:06:25.136Z,3.35
2022-12-31T10:09:06.868Z,3.00
2022-12-31T10:11:50.722Z,3.70
2022-12-31T10:14:38.094Z,2.88
2022-12-31T10:17:41.244Z,2.83
2022-12-31T10:20:43.297Z,2.53
2022-12-31T10:23:37.357Z,2.40
2022-12-31T10:26:04.817Z,1.52
2022-12-31T10:28:44.700Z,1.65
2022-12-31T10:31:33.663Z,1.75
2022-12-31T10:34:31.648Z,1.95
2022-12-31T10:37:29.838Z,1.90
2022-12-31T10:40:09.329Z,1.63
2022-12-31T10:43:05.854Z,1.25
2022-12-31T10:46:01.415Z,1.77
2022-12-31T10:48:44.097Z,1.40
2022-12-31T10:51:54.518Z,1.60
2022-12-31T10:54:21.897Z,1.47
2022-12-31T10:57:33.954Z,1.20
2022-12-31T11:00:10.871Z,1.00
2022-12-31T11:02:38.630Z,1.38
2022-12-31T11:05:27.413Z,0.98
2022-12-31T11:08:17.142Z,0.65
2022-12-31T11:11:13.044Z,1.00
2022-12-31T11:14:22.016Z,1.08
2022-12-31T11:17:21.705Z,1.02
2022-12-31T11:20:16.952Z,0.95
2022-12-31T11:23:07.487Z,1.02
2022-12-31T11:26:05.081Z,0.90
2022-12-31T11:28:52.902Z,0.88
2022-12-31T11:31:23.560Z,0.75
2022-12-31T11:34:03.330Z,0.60
2022-12-31T11:36:44.457Z,0.80
2022-12-31T11:39:34.098Z,0.45
2022-12-31T11:42:20.858Z,0.35
2022-12-31T11:44:57.163Z,0.40
2022-12-31T11:47:56.535Z,0.40
2022-12-31T11:50:38.991Z,0.22
2022-12-31T11:53:39.729Z,0.47
2022-12-31T11:56:16.079Z,0.70
2022-12-31T11:58:53.720Z,0.60
2022-12-31T12:01:36.575Z,0.90
2022-12-31T12:04:04.301Z,0.93
2022-12-31T12:06:33.469Z,2.03
2022-12-31T12:09:06.494Z,2.95
2022-12-31T12:11:39.291Z,2.85
2022-12-31T12:14:44.225Z,3.92
2022-12-31T12:17:19.774Z,4.40
2022-12-31T12:19:54.486Z,3.70
2022-12-31T12:22:25.235Z,3.63
2022-12-31T12:27:29.986Z,3.88
2022-12-31T12:29:57.446Z,3.72
2022-12-31T12:32:27.334Z,4.13
2022-12-31T12:34:54.924Z,3.70
2022-12-31T12:37:33.345Z,3.80
2022-12-31T12:40:06.450Z,3.80
2022-12-31T12:42:34.103Z,3.45
2022-12-31T12:45:14.150Z,4.25
2022-12-31T12:47:44.288Z,3.63
2022-12-31T12:50:24.376Z,2.97
2022-12-31T12:53:12.889Z,3.70
2022-12-31T12:55:57.170Z,3.33
2022-12-31T12:58:50.203Z,3.65
2022-12-31T13:01:42.898Z,3.80
2022-12-31T13:04:41.608Z,3.40
2022-12-31T13:07:23.850Z,3.83
2022-12-31T13:10:29.200Z,3.47
2022-12-31T13:13:23.430Z,4.00
2022-12-31T13:16:25.785Z,4.47
2022-12-31T13:19:02.743Z,4.13
2022-12-31T13:21:57.959Z,4.60
2022-12-31T13:25:06.998Z,5.65
2022-12-31T13:27:37.279Z,4.60
2022-12-31T13:30:18.287Z,5.00
2022-12-31T13:35:42.901Z,4.57
2022-12-31T13:38:31.695Z,4.05
2022-12-31T13:41:21.571Z,4.80
2022-12-31T13:44:21.338Z,4.68
2022-12-31T13:47:02.741Z,4.07
2022-12-31T13:49:39.948Z,4.45
2022-12-31T13:52:28.459Z,4.13
2022-12-31T13:55:22.819Z,4.13
2022-12-31T13:58:01.611Z,4.10
2022-12-31T14:00:44.189Z,4.70
2022-12-31T14:03:23.604Z,5.53
2022-12-31T14:06:05.196Z,5.05
2022-12-31T14:08:32.801Z,4.00
2022-12-31T14:11:18.585Z,4.30
2022-12-31T14:14:10.439Z,4.47
2022-12-31T14:16:54.958Z,4.43
2022-12-31T14:19:44.096Z,4.60
2022-12-31T14:22:17.653Z,4.53
2022-12-31T14:24:46.363Z,5.72
2022-12-31T14:27:22.987Z,5.50
2022-12-31T14:30:00.128Z,4.60
2022-12-31T14:32:42.926Z,5.53
2022-12-31T14:35:31.389Z,5.85
2022-12-31T14:38:32.812Z,6.53
2022-12-31T14:41:26.516Z,7.15
2022-12-31T14:44:18.650Z,7.55
2022-12-31T14:47:23.890Z,7.68
2022-12-31T14:50:05.136Z,7.93
2022-12-31T14:52:35.933Z,6.88
2022-12-31T14:55:23.815Z,8.40
2022-12-31T15:00:40.047Z,8.25
2022-12-31T15:03:16.455Z,8.32
2022-12-31T15:06:01.078Z,8.55
2022-12-31T15:08:59.933Z,9.23
2022-12-31T15:11:46.737Z,8.65
2022-12-31T15:14:51.359Z,9.00
2022-12-31T15:17:31.295Z,9.23
2022-12-31T15:20:18.120Z,9.55
2022-12-31T15:22:47.876Z,9.23
2022-12-31T15:25:24.606Z,9.23
2022-12-31T15:27:53.986Z,9.43
2022-12-31T15:30:46.360Z,10.32
2022-12-31T15:33:27.197Z,10.02
2022-12-31T15:35:57.005Z,9.13
2022-12-31T15:38:37.094Z,7.85
2022-12-31T15:44:54.091Z,8.25
2022-12-31T15:47:36.534Z,9.70
2022-12-31T15:50:18.805Z,8.90
2022-12-31T15:52:49.998Z,11.45
2022-12-31T15:55:22.318Z,9.32
2022-12-31T15:57:50.935Z,9.15
2022-12-31T16:00:21.500Z,8.95
2022-12-31T16:02:52.862Z,10.23
2022-12-31T16:05:26.490Z,7.45
2022-12-31T16:07:59.182Z,8.98
2022-12-31T16:10:32.097Z,7.85
2022-12-31T16:13:00.441Z,9.30
2022-12-31T16:15:31.513Z,9.35
2022-12-31T16:18:20.603Z,8.15
2022-12-31T16:20:52.076Z,7.82
2022-12-31T16:23:25.538Z,8.52
2022-12-31T16:25:58.408Z,9.00
2022-12-31T16:28:31.802Z,8.13
2022-12-31T16:31:04.514Z,8.07
2022-12-31T16:33:32.759Z,9.10
2022-12-31T16:36:01.715Z,7.80
2022-12-31T16:38:36.857Z,9.10
2022-12-31T16:41:20.962Z,9.95
2022-12-31T16:43:50.687Z,9.30
2022-12-31T16:46:28.460Z,9.35
2022-12-31T16:49:03.093Z,7.75
2022-12-31T16:51:32.490Z,8.40
2022-12-31T16:54:02.258Z,8.52
2022-12-31T16:56:36.408Z,9.77
2022-12-31T16:59:14.280Z,9.82
2022-12-31T17:01:42.598Z,8.57
2022-12-31T17:04:12.123Z,8.38
2022-12-31T17:06:39.791Z,8.35
2022-12-31T17:09:22.231Z,7.80
2022-12-31T17:12:15.823Z,8.93
2022-12-31T17:14:51.113Z,9.40
2022-12-31T17:17:25.613Z,8.25
2022-12-31T17:19:59.573Z,9.63
2022-12-31T17:22:41.948Z,8.30
2022-12-31T17:25:21.941Z,8.45
2022-12-31T17:27:58.344Z,8.35
2022-12-31T17:30:32.781Z,7.85
2022-12-31T17:33:04.010Z,8.13
2022-12-31T17:35:31.566Z,7.95
2022-12-31T17:38:18.184Z,8.07
2022-12-31T17:40:51.860Z,7.97
2022-12-31T17:43:21.913Z,8.95
2022-12-31T17:45:54.308Z,7.40
2022-12-31T17:48:24.733Z,8.55
2022-12-31T17:51:00.377Z,6.53
2022-12-31T17:53:28.056Z,7.28
2022-12-31T17:56:00.750Z,8.15
2022-12-31T17:58:33.618Z,8.80
2022-12-31T18:01:05.446Z,8.27
2022-12-31T18:03:33.107Z,8.15
2022-12-31T18:06:00.589Z,9.43
2022-12-31T18:08:28.053Z,9.65
2022-12-31T18:10:55.660Z,8.73
2022-12-31T18:13:25.222Z,9.50
2022-12-31T18:15:54.178Z,9.20
2022-12-31T18:18:26.503Z,9.52
2022-12-31T18:21:17.803Z,9.43
2022-12-31T18:23:47.440Z,8.88
2022-12-31T18:26:20.767Z,8.43
2022-12-31T18:28:49.443Z,8.18
2022-12-31T18:31:24.010Z,10.10
2022-12-31T18:33:53.730Z,8.88
2022-12-31T18:36:22.861Z,7.88
2022-12-31T18:38:51.105Z,9.18
2022-12-31T18:41:21.485Z,7.10
2022-12-31T18:43:49.509Z,7.13
2022-12-31T18:46:19.587Z,8.57
2022-12-31T18:48:47.915Z,9.03
2022-12-31T18:51:31.123Z,8.75
2022-12-31T18:54:03.638Z,9.80
2022-12-31T18:56:31.716Z,9.20
2022-12-31T18:59:00.146Z,9.10
2022-12-31T19:01:36.803Z,10.68
2022-12-31T19:04:19.941Z,9.68
2022-12-31T19:06:50.640Z,9.50
2022-12-31T19:09:43.854Z,9.95
2022-12-31T19:12:06.120Z,8.60
2022-12-31T19:14:33.722Z,9.73
2022-12-31T19:19:27.911Z,8.60
2022-12-31T19:21:55.480Z,8.35
2022-12-31T19:24:26.564Z,9.00
2022-12-31T19:26:55.007Z,8.63
2022-12-31T19:29:25.080Z,8.73
2022-12-31T19:31:53.288Z,9.57
2022-12-31T19:34:21.174Z,8.85
2022-12-31T19:36:48.877Z,8.68
2022-12-31T19:39:20.263Z,8.77
2022-12-31T19:41:54.731Z,8.55
2022-12-31T19:44:26.481Z,8.88
2022-12-31T19:46:54.254Z,8.63
2022-12-31T19:49:22.249Z,8.27
2022-12-31T19:51:49.818Z,8.35
2022-12-31T19:54:17.319Z,8.02
2022-12-31T19:56:44.692Z,9.05
2022-12-31T19:59:12.193Z,9.30
2022-12-31T20:01:39.668Z,7.63
2022-12-31T20:04:07.349Z,8.07
2022-12-31T20:06:34.971Z,8.98
2022-12-31T20:09:03.136Z,10.88
2022-12-31T20:11:30.658Z,8.48
2022-12-31T20:13:58.477Z,8.38
2022-12-31T20:16:31.642Z,8.93
2022-12-31T20:18:59.523Z,7.88
2022-12-31T20:21:29.021Z,7.47
2022-12-31T20:23:56.751Z,8.55
2022-12-31T20:26:25.097Z,7.95
2022-12-31T20:28:53.088Z,7.95
2022-12-31T20:31:23.749Z,7.85
2022-12-31T20:33:53.627Z,7.85
2022-12-31T20:36:22.092Z,7.03
2022-12-31T20:38:50.249Z,7.50
2022-12-31T20:41:21.275Z,7.18
2022-12-31T20:46:23.880Z,7.72
2022-12-31T20:48:53.895Z,7.95
2022-12-31T20:51:22.580Z,7.50
2022-12-31T20:53:55.150Z,7.90
2022-12-31T20:56:24.153Z,8.20
2022-12-31T20:58:51.793Z,7.80
2022-12-31T21:01:20.057Z,6.50
2022-12-31T21:04:06.001Z,7.60
2022-12-31T21:06:35.792Z,6.93
2022-12-31T21:09:07.045Z,5.93
2022-12-31T21:11:53.509Z,6.65
2022-12-31T21:14:21.420Z,6.07
2022-12-31T21:16:48.995Z,6.45
2022-12-31T21:19:16.443Z,6.47
2022-12-31T21:21:44.193Z,5.93
2022-12-31T21:24:11.968Z,5.25
2022-12-31T21:26:39.551Z,5.03
2022-12-31T21:29:07.075Z,5.68
2022-12-31T21:31:34.657Z,5.05
2022-12-31T21:34:02.098Z,5.10
2022-12-31T21:36:29.589Z,4.68
2022-12-31T21:38:57.296Z,5.45
2022-12-31T21:41:43.151Z,5.63
2022-12-31T21:44:10.639Z,5.43
2022-12-31T21:46:38.578Z,5.18
2022-12-31T21:49:06.301Z,4.45
2022-12-31T21:51:54.053Z,5.82
2022-12-31T21:54:41.472Z,4.90
2022-12-31T21:57:09.124Z,6.05
2022-12-31T22:00:23.874Z,4.78
2022-12-31T22:03:01.091Z,5.63
2022-12-31T22:05:28.732Z,4.03
2022-12-31T22:07:56.396Z,4.32
2022-12-31T22:10:23.834Z,3.72
2022-12-31T22:12:51.346Z,3.55
2022-12-31T22:15:19.067Z,4.57
2022-12-31T22:17:46.871Z,4.70
2022-12-31T22:20:26.940Z,4.20
2022-12-31T22:22:55.697Z,4.40
2022-12-31T22:25:23.283Z,4.65
2022-12-31T22:28:19.335Z,3.72
2022-12-31T22:30:38.133Z,4.03
2022-12-31T22:33:05.844Z,3.58
2022-12-31T22:35:33.635Z,4.20
2022-12-31T22:38:08.124Z,3.97
2022-12-31T22:40:39.306Z,3.20
2022-12-31T22:43:06.930Z,3.08
2022-12-31T22:45:36.071Z,3.50
2022-12-31T22:48:03.825Z,3.00
2022-12-31T22:50:31.416Z,3.17
2022-12-31T22:52:58.812Z,3.40
2022-12-31T22:55:26.325Z,2.55
2022-12-31T22:57:53.872Z,2.60
2022-12-31T23:00:37.630Z,2.45
2022-12-31T23:03:05.143Z,2.17
2022-12-31T23:05:34.119Z,2.17
2022-12-31T23:08:07.961Z,2.13
2022-12-31T23:10:58.855Z,2.55
2022-12-31T23:13:50.922Z,3.38
2022-12-31T23:16:38.302Z,3.00
2022-12-31T23:19:25.685Z,2.50
2022-12-31T23:22:12.248Z,3.33
2022-12-31T23:24:40.045Z,3.13
2022-12-31T23:27:08.763Z,2.63
2022-12-31T23:29:45.965Z,3.40
2022-12-31T23:32:16.593Z,2.60
2022-12-31T23:34:45.808Z,3.35
2022-12-31T23:37:14.465Z,2.80
2022-12-31T23:39:42.454Z,2.25
2022-12-31T23:42:10.100Z,2.17
2022-12-31T23:44:37.555Z,2.55
2022-12-31T23:47:05.412Z,2.42
2022-12-31T23:49:32.985Z,2.38
2022-12-31T23:52:00.489Z,2.60
2022-12-31T23:54:28.551Z,2.53
2022-12-31T23:56:55.983Z,2.33
2022-12-31T23:59:23.477Z,2.83
